Time;durP1;ratioP1;P1;durP2;ratioP2;P2;SDS_P1;SDS_P2;PMS_P1;PMS_P2;Temp;Humidity;BMP_temperature;BMP_pressure;BME280_temperature;BME280_humidity;BME280_pressure;Samples;Min_cycle;Max_cycle;Signal;HPM_P1;HPM_P2
2021/04/15 00:01:06;;;;;;;10.05;3.80;;;;;;;-1.67;100.00;102033.53;5099952;28;20024;-79
2021/04/15 00:03:31;;;;;;;10.05;3.80;;;;;;;-1.63;100.00;102028.72;5099845;28;20059;-79
2021/04/15 00:05:59;;;;;;;9.25;4.00;;;;;;;-1.54;100.00;102027.47;5083782;28;20032;-79
2021/04/15 00:08:24;;;;;;;8.55;3.95;;;;;;;-1.51;100.00;102025.97;5099157;28;20043;-79
2021/04/15 00:10:55;;;;;;;11.00;4.45;;;;;;;-1.56;100.00;102032.47;5082889;28;20020;-79
2021/04/15 00:13:22;;;;;;;11.18;4.78;;;;;;;-1.70;100.00;102033.38;5099494;28;20077;-79
2021/04/15 00:15:49;;;;;;;9.77;4.18;;;;;;;-1.73;100.00;102034.06;5083314;28;20029;-80
2021/04/15 00:18:15;;;;;;;11.13;4.22;;;;;;;-1.64;100.00;102031.16;5083264;28;20025;-80
2021/04/15 00:20:40;;;;;;;10.00;4.75;;;;;;;-1.59;100.00;102039.06;5080148;28;20021;-80
2021/04/15 00:23:06;;;;;;;14.48;5.30;;;;;;;-1.49;100.00;102029.47;5097160;28;20029;-80
2021/04/15 00:25:31;;;;;;;10.70;4.88;;;;;;;-1.43;100.00;102032.34;5079960;28;20035;-81
2021/04/15 00:27:56;;;;;;;12.57;5.65;;;;;;;-1.33;100.00;102026.06;5078921;28;20373;-80
2021/04/15 00:30:23;;;;;;;11.02;5.55;;;;;;;-1.26;100.00;102019.63;5079227;28;20036;-80
2021/04/15 00:32:48;;;;;;;11.02;5.35;;;;;;;-1.46;100.00;102021.13;5095360;28;20039;-80
2021/04/15 00:35:14;;;;;;;12.77;4.97;;;;;;;-1.46;100.00;102028.75;5081400;28;20024;-80
2021/04/15 00:37:39;;;;;;;9.68;5.55;;;;;;;-1.37;100.00;102026.72;5096032;28;20112;-80
2021/04/15 00:40:09;;;;;;;12.43;6.43;;;;;;;-1.37;100.00;102024.16;5083180;28;20021;-79
2021/04/15 00:42:36;;;;;;;11.13;5.63;;;;;;;-1.56;100.00;102027.38;5085133;28;20080;-80
2021/04/15 00:45:24;;;;;;;13.50;6.30;;;;;;;-1.59;100.00;102019.59;5084628;28;20392;-79
2021/04/15 00:48:09;;;;;;;12.02;5.63;;;;;;;-1.54;100.00;102022.38;5086617;28;20107;-80
2021/04/15 00:50:49;;;;;;;11.85;5.70;;;;;;;-1.58;100.00;102025.56;5101445;28;20020;-79
2021/04/15 00:53:21;;;;;;;10.98;5.55;;;;;;;-1.54;100.00;102018.19;5084640;28;20033;-79
2021/04/15 00:55:47;;;;;;;11.52;5.60;;;;;;;-1.57;100.00;102028.19;5083500;28;20067;-79
2021/04/15 00:58:13;;;;;;;10.70;5.47;;;;;;;-1.58;100.00;102020.47;5099600;28;20026;-79
2021/04/15 01:00:38;;;;;;;10.50;5.40;;;;;;;-1.65;100.00;102026.88;5084233;28;20081;-79
2021/04/15 01:03:05;;;;;;;11.27;5.40;;;;;;;-1.67;100.00;102028.47;5083967;28;20021;-79
2021/04/15 01:05:35;;;;;;;11.23;5.57;;;;;;;-1.71;100.00;102024.00;5099559;28;20021;-80
2021/04/15 01:08:03;;;;;;;9.43;4.93;;;;;;;-1.72;100.00;102028.22;5084488;28;20051;-79
2021/04/15 01:10:35;;;;;;;11.77;5.07;;;;;;;-1.85;100.00;102033.41;5083872;28;20455;-79
2021/04/15 01:13:24;;;;;;;10.75;4.93;;;;;;;-1.80;100.00;102032.00;5099863;28;20024;-80
2021/04/15 01:16:03;;;;;;;13.10;4.90;;;;;;;-1.68;100.00;102025.03;5084018;28;20021;-80
2021/04/15 01:18:49;;;;;;;10.48;5.05;;;;;;;-1.70;100.00;102026.63;5101489;28;20024;-79
2021/04/15 01:21:40;;;;;;;11.32;5.50;;;;;;;-1.73;100.00;102033.22;5100402;28;20091;-79
2021/04/15 01:24:18;;;;;;;13.32;5.25;;;;;;;-1.78;100.00;102025.34;5084725;28;20036;-79
2021/04/15 01:26:48;;;;;;;9.68;4.68;;;;;;;-1.77;100.00;102031.28;5082489;28;20060;-80
2021/04/15 01:29:19;;;;;;;10.57;4.50;;;;;;;-1.74;100.00;102028.91;5099764;28;20028;-79
2021/04/15 01:31:59;;;;;;;12.05;4.75;;;;;;;-1.69;100.00;102020.75;5084404;28;20028;-80
2021/04/15 01:34:37;;;;;;;12.43;4.80;;;;;;;-1.66;100.00;102028.56;5084649;28;20024;-80
2021/04/15 01:37:17;;;;;;;11.43;5.43;;;;;;;-1.66;100.00;102020.06;5084281;28;20020;-80
2021/04/15 01:39:47;;;;;;;8.48;4.78;;;;;;;-1.59;100.00;102026.34;5084915;28;20024;-80
2021/04/15 01:42:20;;;;;;;13.25;4.93;;;;;;;-1.63;100.00;102025.31;5083286;28;20621;-80
2021/04/15 01:44:56;;;;;;;9.75;5.15;;;;;;;-1.60;100.00;102020.41;5083643;28;20051;-80
2021/04/15 01:47:32;;;;;;;9.85;4.20;;;;;;;-1.68;100.00;102025.03;5085065;28;20021;-80
2021/04/15 01:50:06;;;;;;;8.45;4.38;;;;;;;-1.66;100.00;102026.00;5101606;28;20016;-80
2021/04/15 01:52:36;;;;;;;8.30;4.60;;;;;;;-1.63;100.00;102027.84;5100701;28;20043;-79
2021/04/15 01:55:19;;;;;;;10.25;4.45;;;;;;;-1.60;100.00;102028.03;5100385;28;20020;-79
2021/04/15 01:57:58;;;;;;;10.48;4.30;;;;;;;-1.57;100.00;102029.84;5084291;28;20037;-79
2021/04/15 02:00:26;;;;;;;11.93;4.40;;;;;;;-1.56;100.00;102026.53;5085725;28;20055;-79
2021/04/15 02:03:06;;;;;;;10.02;4.38;;;;;;;-1.49;100.00;102031.13;5084745;28;20024;-79
2021/04/15 02:05:35;;;;;;;10.35;3.80;;;;;;;-1.49;100.00;102023.50;5084108;28;20054;-80
2021/04/15 02:08:21;;;;;;;10.15;4.70;;;;;;;-1.52;100.00;102029.28;5099138;28;20027;-80
2021/04/15 02:10:51;;;;;;;9.95;4.10;;;;;;;-1.62;100.00;102035.56;5084201;28;20466;-79
2021/04/15 02:13:18;;;;;;;8.13;3.30;;;;;;;-1.55;100.00;102033.34;5084096;28;20025;-79
2021/04/15 02:15:51;;;;;;;9.02;3.70;;;;;;;-1.54;100.00;102040.19;5083018;28;20021;-80
2021/04/15 02:18:27;;;;;;;12.10;4.00;;;;;;;-1.49;100.00;102031.13;5084720;28;20388;-79
2021/04/15 02:20:58;;;;;;;12.07;4.05;;;;;;;-1.54;100.00;102035.09;5085361;28;20021;-79
2021/04/15 02:23:30;;;;;;;10.15;4.40;;;;;;;-1.60;100.00;102034.75;5083630;28;20024;-79
2021/04/15 02:26:12;;;;;;;12.95;4.47;;;;;;;-1.57;100.00;102029.84;5083546;28;20024;-80
2021/04/15 02:28:52;;;;;;;10.20;3.35;;;;;;;-1.36;100.00;102031.00;5083173;28;20107;-79
2021/04/15 02:31:23;;;;;;;7.53;3.58;;;;;;;-1.40;100.00;102029.09;5098598;28;20027;-79
2021/04/15 02:34:13;;;;;;;9.63;3.33;;;;;;;-1.52;100.00;102030.97;5082169;28;20078;-80
2021/04/15 02:36:46;;;;;;;8.02;3.40;;;;;;;-1.53;100.00;102036.88;5097529;28;20506;-79
2021/04/15 02:39:18;;;;;;;9.07;4.20;;;;;;;-1.59;100.00;102033.97;5098255;28;20024;-80
2021/04/15 02:41:46;;;;;;;8.60;3.90;;;;;;;-1.59;100.00;102036.53;5082304;28;20032;-79
2021/04/15 02:44:21;;;;;;;9.98;3.58;;;;;;;-1.66;100.00;102036.19;5083082;28;20025;-79
2021/04/15 02:46:53;;;;;;;8.63;3.45;;;;;;;-1.74;100.00;102034.00;5082192;28;20017;-79
2021/04/15 02:49:20;;;;;;;7.43;3.00;;;;;;;-1.65;100.00;102037.06;5084207;28;20024;-80
2021/04/15 02:51:52;;;;;;;8.02;3.20;;;;;;;-1.63;100.00;102036.34;5084891;28;20481;-79
2021/04/15 02:54:26;;;;;;;8.15;3.30;;;;;;;-1.67;100.00;102046.25;5082283;28;20448;-79
2021/04/15 02:57:00;;;;;;;;;;;;;;;-1.83;100.00;102039.44;5083573;28;20095;-80
2021/04/15 02:59:40;;;;;;;7.88;3.13;;;;;;;-1.97;100.00;102043.78;5081281;28;19909;-79
2021/04/15 03:02:15;;;;;;;9.68;3.30;;;;;;;-1.99;100.00;102041.94;5096441;28;20025;-80
2021/04/15 03:04:46;;;;;;;9.25;3.42;;;;;;;-1.98;100.00;102048.75;5080718;28;20495;-79
2021/04/15 03:07:11;;;;;;;8.52;3.63;;;;;;;-1.99;100.00;102052.09;5082150;28;20468;-80
2021/04/15 03:09:39;;;;;;;9.57;3.47;;;;;;;-1.98;100.00;102049.63;5082364;28;20104;-80
2021/04/15 03:12:18;;;;;;;7.90;3.22;;;;;;;-2.05;100.00;102047.53;5097836;28;20025;-79
2021/04/15 03:15:02;;;;;;;8.57;3.25;;;;;;;-2.01;100.00;102052.00;5098123;28;20028;-80
2021/04/15 03:17:30;;;;;;;9.43;3.88;;;;;;;-2.03;100.00;102048.53;5097702;28;20025;-80
2021/04/15 03:20:00;;;;;;;8.95;3.38;;;;;;;-2.02;100.00;102049.38;5083145;28;20443;-80
2021/04/15 03:22:39;;;;;;;11.95;3.60;;;;;;;-1.99;100.00;102049.56;5083624;28;20033;-80
2021/04/15 03:25:05;;;;;;;11.02;3.75;;;;;;;-1.97;100.00;102047.97;5083083;28;20027;-80
2021/04/15 03:28:03;;;;;;;9.23;3.75;;;;;;;-2.01;100.00;102051.13;5081893;28;20027;-80
2021/04/15 03:30:50;;;;;;;9.90;3.40;;;;;;;-1.99;100.00;102050.44;5080017;28;20066;-79
2021/04/15 03:33:36;;;;;;;11.13;3.60;;;;;;;-1.95;100.00;102051.47;5080888;28;20031;-79
2021/04/15 03:36:07;;;;;;;8.98;3.67;;;;;;;-1.98;100.00;102053.84;5081943;28;20020;-80
2021/04/15 03:38:57;;;;;;;9.38;3.53;;;;;;;-2.15;100.00;102051.22;5081784;28;20025;-79
2021/04/15 03:41:47;;;;;;;7.80;3.75;;;;;;;-2.11;100.00;102060.78;5081126;28;20025;-79
2021/04/15 03:44:26;;;;;;;10.93;3.65;;;;;;;-2.11;100.00;102060.78;5082110;28;20020;-79
2021/04/15 03:47:00;;;;;;;9.02;3.22;;;;;;;-2.11;100.00;102054.81;5080737;28;20490;-80
2021/04/15 03:49:42;;;;;;;14.57;4.03;;;;;;;-2.05;100.00;102054.31;5083208;28;20038;-79
2021/04/15 03:52:20;;;;;;;10.85;3.75;;;;;;;-2.09;100.00;102059.22;5081640;28;20025;-80
2021/04/15 03:54:50;;;;;;;10.93;3.65;;;;;;;-2.11;100.00;102055.69;5082120;28;20228;-80
2021/04/15 03:57:20;;;;;;;10.77;3.65;;;;;;;-2.17;100.00;102060.41;5096913;28;20085;-79
2021/04/15 03:59:50;;;;;;;8.93;3.72;;;;;;;-2.18;100.00;102053.59;5082384;28;20093;-80
2021/04/15 04:02:38;;;;;;;11.13;3.55;;;;;;;-2.19;100.00;102056.91;5097364;28;20021;-80
2021/04/15 04:05:13;;;;;;;8.10;3.70;;;;;;;-2.40;100.00;102048.03;5096808;28;20539;-80
2021/04/15 04:07:44;;;;;;;14.23;3.95;;;;;;;-2.43;100.00;102065.63;5082158;28;20025;-80
2021/04/15 04:10:23;;;;;;;10.13;4.05;;;;;;;-2.32;100.00;102064.63;5097526;28;20050;-80
2021/04/15 04:13:04;;;;;;;8.48;3.53;;;;;;;-2.23;100.00;102060.06;5082349;28;20114;-82
2021/04/15 04:15:33;;;;;;;8.40;3.70;;;;;;;-2.23;100.00;102062.59;5082839;28;20032;-80
2021/04/15 04:18:01;;;;;;;10.98;3.70;;;;;;;-2.26;100.00;102064.97;5098401;28;20032;-80
2021/04/15 04:20:30;;;;;;;8.45;3.78;;;;;;;-2.36;100.00;102067.78;5097998;28;20028;-80
2021/04/15 04:23:10;;;;;;;9.80;4.07;;;;;;;-2.26;100.00;102064.09;5081513;28;20470;-80
2021/04/15 04:25:52;;;;;;;11.38;3.97;;;;;;;-2.19;100.00;102066.19;5081894;28;20426;-80
2021/04/15 04:28:29;;;;;;;15.85;4.07;;;;;;;-2.12;100.00;102063.25;5081092;28;20020;-80
2021/04/15 04:30:58;;;;;;;8.77;3.75;;;;;;;-2.08;100.00;102068.56;5080242;28;20025;-80
2021/04/15 04:33:46;;;;;;;11.55;4.18;;;;;;;-2.05;100.00;102067.00;5097218;28;20032;-80
2021/04/15 04:36:13;;;;;;;8.90;3.63;;;;;;;-2.25;100.00;102070.94;5097471;28;20029;-80
2021/04/15 04:38:39;;;;;;;11.65;4.07;;;;;;;-2.33;100.00;102075.56;5079776;28;20024;-80
2021/04/15 04:41:24;;;;;;;10.95;3.90;;;;;;;-2.34;100.00;102072.16;5097341;28;20035;-80
2021/04/15 04:43:54;;;;;;;9.35;4.10;;;;;;;-2.17;100.00;102073.13;5081926;28;20477;-80
2021/04/15 04:46:30;;;;;;;11.65;4.40;;;;;;;-2.12;100.00;102079.38;5080097;28;20024;-80
2021/04/15 04:49:01;;;;;;;11.68;4.20;;;;;;;-2.05;100.00;102077.19;5080468;28;20110;-80
2021/04/15 04:51:41;;;;;;;11.18;4.45;;;;;;;-1.98;100.00;102081.81;5081649;28;20024;-80
2021/04/15 04:54:07;;;;;;;9.57;3.90;;;;;;;-2.14;100.00;102078.38;5080968;28;20020;-80
2021/04/15 04:56:39;;;;;;;8.57;3.97;;;;;;;-2.15;100.00;102084.28;5080990;28;20035;-80
2021/04/15 04:59:13;;;;;;;10.57;4.53;;;;;;;-2.08;100.00;102088.03;5079667;28;20036;-80
2021/04/15 05:01:38;;;;;;;13.05;3.85;;;;;;;-2.02;100.00;102087.53;5081463;28;20176;-80
2021/04/15 05:04:04;;;;;;;9.68;4.30;;;;;;;-1.96;100.00;102098.03;5082496;28;20115;-80
2021/04/15 05:06:35;;;;;;;8.77;3.67;;;;;;;-1.90;100.00;102090.75;5081235;28;20084;-80
2021/04/15 05:09:20;;;;;;;9.10;4.30;;;;;;;-1.76;100.00;102100.03;5098076;28;20024;-80
2021/04/15 05:11:48;;;;;;;9.65;4.03;;;;;;;-1.65;100.00;102098.97;5097962;28;20056;-80
2021/04/15 05:14:18;;;;;;;10.90;4.10;;;;;;;-1.75;100.00;102099.25;5080960;28;20530;-80
2021/04/15 05:16:47;;;;;;;11.50;4.43;;;;;;;-1.82;100.00;102104.78;5096124;28;20031;-80
2021/04/15 05:19:13;;;;;;;12.00;4.65;;;;;;;-1.74;100.00;102103.56;5082459;28;20032;-80
2021/04/15 05:21:40;;;;;;;13.70;5.03;;;;;;;-1.71;100.00;102107.94;5082342;28;20066;-80
2021/04/15 05:24:23;;;;;;;12.30;4.85;;;;;;;-1.54;100.00;102111.41;5082398;28;20024;-80
2021/04/15 05:26:50;;;;;;;13.55;4.72;;;;;;;-1.37;100.00;102118.31;5082553;28;20020;-80
2021/04/15 05:29:22;;;;;;;11.32;4.90;;;;;;;-1.16;98.90;102114.41;5101339;28;20024;-80
2021/04/15 05:31:51;;;;;;;9.35;4.18;;;;;;;-1.10;98.41;102124.06;5086297;28;20035;-79
2021/04/15 05:34:27;;;;;;;10.77;5.05;;;;;;;-1.00;98.31;102117.78;5101791;28;20411;-80
2021/04/15 05:36:58;;;;;;;13.38;5.20;;;;;;;-0.80;98.66;102116.28;5086072;28;20462;-80
2021/04/15 05:39:24;;;;;;;12.40;5.25;;;;;;;-0.52;97.09;102121.19;5086271;28;20055;-80
2021/04/15 05:42:06;;;;;;;10.63;4.75;;;;;;;-0.15;95.24;102125.63;5103029;28;20024;-83
2021/04/15 05:44:42;;;;;;;11.30;4.40;;;;;;;-0.02;94.29;102125.44;5085311;28;20025;-80
2021/04/15 05:47:25;;;;;;;11.77;4.50;;;;;;;0.27;92.89;102134.53;5101199;28;20028;-80
2021/04/15 05:49:55;;;;;;;9.52;4.00;;;;;;;0.80;90.38;102123.47;5085865;28;20023;-80
2021/04/15 05:52:32;;;;;;;8.77;4.90;;;;;;;1.43;88.67;102123.75;5085059;28;20024;-80
2021/04/15 05:55:10;;;;;;;14.43;4.88;;;;;;;1.95;85.23;102120.91;5085358;28;20035;-80
2021/04/15 05:57:39;;;;;;;9.10;3.90;;;;;;;2.22;82.85;102128.84;5100112;28;20032;-80
2021/04/15 06:00:28;;;;;;;8.82;4.05;;;;;;;2.71;80.04;102124.78;5084864;28;20025;-80
2021/04/15 06:03:18;;;;;;;7.57;3.92;;;;;;;2.71;79.18;102127.34;5082620;28;20056;-80
2021/04/15 06:06:02;;;;;;;10.93;4.32;;;;;;;2.93;78.65;102131.66;5079524;28;20035;-80
2021/04/15 06:08:32;;;;;;;9.45;3.95;;;;;;;3.06;78.81;102131.28;5078295;28;20020;-80
2021/04/15 06:11:06;;;;;;;11.95;3.65;;;;;;;3.51;76.03;102127.78;5096191;28;20027;-80
2021/04/15 06:13:42;;;;;;;;;;;;;;;3.55;77.03;102129.66;5097340;28;20477;-80
2021/04/15 06:16:16;;;;;;;8.88;3.67;;;;;;;3.93;75.02;102124.16;5079796;28;19912;-80
2021/04/15 06:18:53;;;;;;;11.03;4.30;;;;;;;4.00;74.44;102134.63;5079749;28;20119;-80
2021/04/15 06:21:30;;;;;;;9.82;4.28;;;;;;;4.30;73.87;102127.09;5081297;28;20028;-80
2021/04/15 06:24:08;;;;;;;11.27;4.85;;;;;;;4.57;72.32;102139.97;5081827;28;20028;-80
2021/04/15 06:26:51;;;;;;;13.38;4.80;;;;;;;4.24;75.27;102135.47;5080647;28;20021;-81
2021/04/15 06:29:26;;;;;;;9.82;5.18;;;;;;;4.73;72.52;102141.31;5080080;28;20093;-80
2021/04/15 06:31:54;;;;;;;12.00;5.00;;;;;;;5.29;70.06;102143.00;5096438;28;20112;-80
2021/04/15 06:34:21;;;;;;;9.13;4.75;;;;;;;5.67;69.81;102132.94;5096363;28;20043;-80
2021/04/15 06:36:52;;;;;;;13.90;4.80;;;;;;;5.76;67.42;102132.31;5080503;28;20028;-80
2021/04/15 06:39:31;;;;;;;12.68;5.38;;;;;;;5.54;69.63;102139.44;5081133;28;20039;-80
2021/04/15 06:42:44;;;;;;;8.32;4.15;;;;;;;6.02;67.24;102138.16;5078324;28;20496;-79
2021/04/15 06:45:15;;;;;;;8.85;4.43;;;;;;;6.05;67.39;102139.97;5031992;28;20041;-80
2021/04/15 06:48:06;;;;;;;10.10;4.88;;;;;;;5.92;68.57;102137.03;5077299;28;20017;-79
2021/04/15 06:50:51;;;;;;;11.75;5.38;;;;;;;5.88;66.84;102145.50;5094808;28;20549;-79
2021/04/15 06:53:37;;;;;;;12.25;4.47;;;;;;;5.78;68.20;102136.66;5079794;28;20055;-80
2021/04/15 06:56:19;;;;;;;10.65;4.75;;;;;;;6.04;66.52;102135.66;5093651;28;20369;-80
2021/04/15 06:58:51;;;;;;;12.40;5.20;;;;;;;6.14;66.74;102135.91;5094335;28;20077;-79
2021/04/15 07:01:38;;;;;;;12.38;4.95;;;;;;;6.38;65.72;102134.78;5077060;28;20020;-80
2021/04/15 07:04:07;;;;;;;10.32;4.82;;;;;;;6.73;64.82;102132.16;5094054;28;20077;-80
2021/04/15 07:06:48;;;;;;;12.23;5.72;;;;;;;6.87;64.21;102134.22;5077525;28;20480;-80
2021/04/15 07:09:40;;;;;;;9.90;4.88;;;;;;;7.17;62.94;102130.53;5094266;28;20028;-80
2021/04/15 07:12:29;;;;;;;10.63;4.97;;;;;;;7.38;62.56;102128.41;5076864;28;20124;-81
2021/04/15 07:15:18;;;;;;;10.98;4.57;;;;;;;7.61;62.00;102128.88;5094551;28;20021;-80
2021/04/15 07:17:54;;;;;;;12.77;5.00;;;;;;;7.25;63.57;102141.03;5079466;28;20039;-81
2021/04/15 07:20:33;;;;;;;12.98;4.95;;;;;;;7.77;61.84;102140.34;5094208;28;20063;-81
2021/04/15 07:23:18;;;;;;;10.68;4.30;;;;;;;7.22;62.79;102138.41;5077107;28;20028;-81
2021/04/15 07:26:16;;;;;;;11.73;3.97;;;;;;;6.21;64.50;102140.38;5078327;28;20048;-81
2021/04/15 07:29:00;;;;;;;11.27;4.45;;;;;;;6.77;63.53;102141.69;5076640;28;20029;-80
2021/04/15 07:31:55;;;;;;;9.90;3.87;;;;;;;7.80;60.91;102132.66;5078576;28;20404;-81
2021/04/15 07:34:45;;;;;;;9.88;3.55;;;;;;;6.96;62.07;102143.88;5094149;28;20335;-81
2021/04/15 07:37:29;;;;;;;15.60;4.13;;;;;;;7.52;62.07;102146.78;5077705;28;20028;-80
2021/04/15 07:40:30;;;;;;;14.00;3.90;;;;;;;7.51;62.03;102146.72;5078043;28;20035;-80
2021/04/15 07:43:05;;;;;;;10.93;4.20;;;;;;;7.93;59.18;102145.81;5076663;28;20024;-80
2021/04/15 07:46:05;;;;;;;13.38;4.03;;;;;;;8.44;58.50;102143.28;5077538;28;20031;-81
2021/04/15 07:48:42;;;;;;;15.43;3.80;;;;;;;9.00;57.55;102147.56;5076636;28;20480;-80
2021/04/15 07:51:26;;;;;;;15.68;3.75;;;;;;;8.87;56.60;102141.34;5078216;28;20495;-80
2021/04/15 07:54:19;;;;;;;8.70;3.25;;;;;;;7.92;57.94;102142.38;5095364;28;20024;-80
2021/04/15 07:57:21;;;;;;;8.00;3.83;;;;;;;8.84;56.85;102149.06;5094053;28;20029;-81
2021/04/15 07:59:59;;;;;;;11.77;4.05;;;;;;;9.34;55.15;102150.59;5095093;28;20476;-81
2021/04/15 08:02:58;;;;;;;10.98;3.58;;;;;;;9.17;55.50;102152.97;5078729;28;20028;-81
2021/04/15 08:05:33;;;;;;;7.47;3.40;;;;;;;9.49;54.84;102143.03;5079082;28;20020;-82
2021/04/15 08:08:07;;;;;;;7.57;3.25;;;;;;;9.39;53.73;102147.22;5096040;28;20413;-82
2021/04/15 08:11:10;;;;;;;12.57;3.45;;;;;;;9.09;55.22;102152.88;5081582;28;20107;-82
2021/04/15 08:13:56;;;;;;;8.20;3.60;;;;;;;8.64;56.45;102147.91;5079633;28;20123;-82
2021/04/15 08:16:49;;;;;;;9.15;3.83;;;;;;;9.29;54.29;102158.28;5096567;28;20032;-82
2021/04/15 08:19:39;;;;;;;11.55;3.33;;;;;;;9.05;55.50;102152.78;5081010;28;20055;-82
2021/04/15 08:22:31;;;;;;;7.85;3.40;;;;;;;9.34;53.70;102148.00;5080549;28;20028;-82
2021/04/15 08:25:18;;;;;;;7.55;3.67;;;;;;;10.08;52.61;102140.19;5095354;28;20020;-82
2021/04/15 08:27:53;;;;;;;10.02;3.33;;;;;;;10.44;52.09;102149.19;5080415;28;20059;-82
2021/04/15 08:30:24;;;;;;;9.07;3.20;;;;;;;10.70;51.98;102138.97;5078809;28;20029;-82
2021/04/15 08:33:12;;;;;;;7.25;1.92;;;;;;;9.20;49.98;102153.00;5080088;28;20392;-82
2021/04/15 08:35:49;;;;;;;6.10;2.53;;;;;;;9.70;49.87;102145.00;5080098;28;20028;-81
2021/04/15 08:38:21;;;;;;;5.43;2.00;;;;;;;9.44;48.79;102155.03;5079500;28;20032;-81
2021/04/15 08:41:00;;;;;;;5.57;2.10;;;;;;;10.05;49.05;102142.75;5080435;28;20028;-81
2021/04/15 08:43:58;;;;;;;5.72;1.98;;;;;;;9.77;46.54;102140.75;5078964;28;20066;-82
2021/04/15 08:46:46;;;;;;;9.20;2.53;;;;;;;10.69;45.97;102139.84;5062196;28;20373;-82
2021/04/15 08:49:49;;;;;;;5.43;2.20;;;;;;;10.73;46.02;102139.00;5096331;28;20031;-81
2021/04/15 08:52:38;;;;;;;9.30;2.25;;;;;;;10.93;44.64;102141.72;5081055;28;20024;-82
2021/04/15 08:55:10;;;;;;;7.55;1.42;;;;;;;9.00;46.85;102147.56;5080955;28;20028;-81
2021/04/15 08:57:43;;;;;;;4.45;1.45;;;;;;;9.93;45.98;102142.63;5081315;28;20028;-82
2021/04/15 09:00:18;;;;;;;7.35;2.58;;;;;;;10.79;44.63;102146.81;5097567;28;20028;-82
2021/04/15 09:03:05;;;;;;;6.93;1.70;;;;;;;10.85;43.76;102139.94;5102428;28;20048;-82
2021/04/15 09:05:56;;;;;;;3.65;1.33;;;;;;;10.11;42.74;102147.97;5085094;28;20380;-82
2021/04/15 09:08:31;;;;;;;6.43;1.92;;;;;;;9.86;43.71;102140.84;5103320;28;20025;-81
2021/04/15 09:11:13;;;;;;;6.03;1.95;;;;;;;10.85;42.44;102134.75;5101132;28;20069;-81
2021/04/15 09:13:58;;;;;;;8.35;2.10;;;;;;;11.49;42.84;102141.09;5085600;28;20084;-81
2021/04/15 09:16:39;;;;;;;3.92;1.40;;;;;;;10.43;42.97;102136.19;5084297;28;20032;-81
2021/04/15 09:19:11;;;;;;;3.65;1.05;;;;;;;12.15;35.38;102133.47;5101085;28;20035;-81
2021/04/15 09:21:36;;;;;;;5.32;0.90;;;;;;;11.64;35.24;102131.63;5100026;28;20025;-82
2021/04/15 09:24:07;;;;;;;4.70;1.33;;;;;;;12.16;36.25;102132.63;5099175;28;20027;-82
2021/04/15 09:26:52;;;;;;;7.13;0.95;;;;;;;11.68;34.52;102121.25;5099438;28;20485;-82
2021/04/15 09:29:35;;;;;;;4.03;1.10;;;;;;;9.80;38.56;102138.19;5084182;28;20039;-82
2021/04/15 09:32:10;;;;;;;5.22;1.13;;;;;;;11.88;36.37;102117.84;5100043;28;20035;-83
2021/04/15 09:34:46;;;;;;;3.38;1.17;;;;;;;11.55;34.49;102114.28;5084664;28;20024;-82
2021/04/15 09:37:40;;;;;;;3.28;1.00;;;;;;;11.13;36.45;102121.03;5082906;28;20063;-82
2021/04/15 09:40:28;;;;;;;7.28;1.65;;;;;;;12.34;36.12;102115.25;5085101;28;20032;-82
2021/04/15 09:43:17;;;;;;;12.68;1.40;;;;;;;12.94;32.17;102117.78;5100941;28;20020;-82
2021/04/15 09:46:14;;;;;;;2.92;0.77;;;;;;;12.89;33.11;102116.03;5084357;28;20063;-82
2021/04/15 09:49:03;;;;;;;3.92;0.80;;;;;;;13.05;32.77;102115.97;5099116;28;20044;-82
2021/04/15 09:51:54;;;;;;;6.03;0.88;;;;;;;11.47;35.40;102126.38;5082343;28;20035;-82
2021/04/15 09:54:41;;;;;;;5.15;1.00;;;;;;;13.06;33.43;102109.91;5083707;28;20029;-82
2021/04/15 09:57:31;;;;;;;4.30;0.93;;;;;;;13.64;30.23;102108.78;5084210;28;20558;-82
2021/04/15 10:00:32;;;;;;;1.80;0.55;;;;;;;11.50;33.79;102109.06;5101544;28;20028;-82
2021/04/15 10:03:30;;;;;;;2.15;0.70;;;;;;;13.91;31.67;102095.56;5082303;28;20084;-82
2021/04/15 10:06:15;;;;;;;2.67;0.85;;;;;;;13.73;33.87;102103.50;5099696;28;20546;-83
2021/04/15 10:08:56;;;;;;;3.17;1.17;;;;;;;13.50;31.35;102095.84;5084353;28;20024;-82
2021/04/15 10:11:31;;;;;;;2.45;0.70;;;;;;;11.62;31.66;102094.38;5099106;28;20024;-82
2021/04/15 10:14:18;;;;;;;4.38;1.00;;;;;;;13.39;31.30;102092.41;5100003;28;20048;-82
2021/04/15 10:16:56;;;;;;;4.80;1.10;;;;;;;11.47;34.38;102092.59;5084324;28;20028;-83
2021/04/15 10:19:44;;;;;;;3.72;0.88;;;;;;;10.93;37.54;102096.69;5085431;28;20027;-82
2021/04/15 10:23:03;;;;;;;2.38;0.88;;;;;;;10.35;37.65;102092.91;5082515;28;20031;-82
2021/04/15 10:25:38;;;;;;;1.75;0.70;;;;;;;10.02;37.39;102084.81;5021411;28;20065;-83
2021/04/15 10:28:39;;;;;;;4.38;0.98;;;;;;;9.60;39.61;102094.78;5021329;28;20417;-82
2021/04/15 10:31:28;;;;;;;4.60;1.23;;;;;;;9.33;40.29;102097.94;5075832;28;20088;-82
2021/04/15 10:34:15;;;;;;;2.95;1.10;;;;;;;9.56;41.01;102102.50;5084380;28;20103;-83
2021/04/15 10:37:03;;;;;;;2.67;0.82;;;;;;;9.21;39.92;102100.41;5082684;28;20029;-82
2021/04/15 10:39:49;;;;;;;4.30;1.10;;;;;;;12.02;33.31;102087.53;5084206;28;20462;-82
2021/04/15 10:42:29;;;;;;;5.55;1.00;;;;;;;10.27;36.72;102091.97;5083339;28;20029;-82
2021/04/15 10:45:17;;;;;;;5.97;0.90;;;;;;;9.87;37.13;102088.13;5084116;28;20031;-82
2021/04/15 10:48:09;;;;;;;4.05;0.90;;;;;;;9.26;38.07;102082.31;5083407;28;20072;-82
2021/04/15 10:50:58;;;;;;;5.40;0.90;;;;;;;8.79;38.18;102093.78;5081830;28;20024;-83
2021/04/15 10:54:05;;;;;;;3.20;1.00;;;;;;;8.76;39.88;102088.59;5097301;28;20435;-82
2021/04/15 10:56:43;;;;;;;3.92;1.00;;;;;;;8.54;39.73;102092.59;5095769;22;20070;-81
2021/04/15 10:59:27;;;;;;;2.67;0.85;;;;;;;8.55;39.97;102090.84;5052579;28;20038;-82
2021/04/15 11:02:15;;;;;;;1.95;0.80;;;;;;;8.95;39.23;102093.16;5037604;28;20100;-83
2021/04/15 11:04:41;;;;;;;3.13;1.00;;;;;;;8.77;39.24;102087.72;5037312;28;20485;-84
2021/04/15 11:07:26;;;;;;;2.10;0.77;;;;;;;9.16;39.60;102089.09;5037427;28;20041;-84
2021/04/15 11:09:54;;;;;;;2.35;0.73;;;;;;;9.29;40.21;102088.38;5034872;28;20024;-84
2021/04/15 11:12:40;;;;;;;2.78;0.70;;;;;;;8.61;35.29;102085.78;5037443;28;20049;-84
2021/04/15 11:15:10;;;;;;;3.30;0.90;;;;;;;9.22;36.45;102082.28;5035438;28;20548;-84
2021/04/15 11:17:44;;;;;;;1.98;0.70;;;;;;;8.95;36.02;102087.09;5034993;28;20033;-84
2021/04/15 11:20:15;;;;;;;2.65;0.60;;;;;;;8.55;35.62;102083.09;5035914;28;20029;-85
2021/04/15 11:22:51;;;;;;;1.60;0.50;;;;;;;8.63;35.37;102081.50;5035353;28;20116;-84
2021/04/15 11:25:26;;;;;;;1.85;0.70;;;;;;;9.29;37.42;102077.16;5035220;28;20036;-85
2021/04/15 11:27:53;;;;;;;1.77;0.52;;;;;;;9.07;35.67;102078.63;5035332;28;20017;-83
2021/04/15 11:30:36;;;;;;;2.20;0.70;;;;;;;10.15;36.29;102073.69;5036219;28;20119;-83
2021/04/15 11:33:04;;;;;;;4.57;0.80;;;;;;;10.34;37.03;102065.25;5037126;28;20017;-84
2021/04/15 11:35:30;;;;;;;3.63;1.30;;;;;;;10.07;39.64;102065.00;5038407;28;20375;-84
2021/04/15 11:38:19;;;;;;;2.95;0.85;;;;;;;10.30;38.84;102073.84;5038473;28;20028;-84
2021/04/15 11:40:48;;;;;;;3.90;0.80;;;;;;;10.44;38.07;102066.16;5037898;28;20021;-84
2021/04/15 11:43:37;;;;;;;2.55;0.90;;;;;;;9.87;38.66;102055.31;5036329;28;20025;-84
2021/04/15 11:46:14;;;;;;;3.83;1.10;;;;;;;9.17;40.57;102064.94;5035586;28;20051;-83
2021/04/15 11:48:40;;;;;;;4.53;0.90;;;;;;;8.87;40.66;102071.50;5035114;28;20045;-84
2021/04/15 11:51:14;;;;;;;4.03;0.90;;;;;;;9.41;39.25;102072.13;5035516;28;20029;-83
2021/04/15 11:53:51;;;;;;;7.13;1.25;;;;;;;9.51;39.73;102060.13;5034960;28;20465;-83
2021/04/15 11:56:25;;;;;;;4.68;0.90;;;;;;;9.41;39.14;102062.63;5035389;28;20039;-84
2021/04/15 11:58:55;;;;;;;2.97;0.98;;;;;;;9.65;40.78;102061.16;5034981;28;20401;-84
2021/04/15 12:01:30;;;;;;;3.13;0.90;;;;;;;9.65;41.04;102063.75;5034610;28;20433;-84
2021/04/15 12:03:58;;;;;;;3.20;1.02;;;;;;;8.68;42.01;102075.56;5033519;28;20063;-84
2021/04/15 12:06:30;;;;;;;4.03;0.80;;;;;;;8.84;42.24;102068.88;5033616;28;20020;-84
2021/04/15 12:08:56;;;;;;;2.83;0.90;;;;;;;9.10;41.42;102070.91;5033558;28;20021;-84
2021/04/15 12:11:27;;;;;;;6.00;1.00;;;;;;;8.98;42.72;102069.03;5035122;28;20078;-83